Time;durP1;ratioP1;P1;durP2;ratioP2;P2;SDS_P1;SDS_P2;PMS_P1;PMS_P2;Temp;Humidity;BMP_temperature;BMP_pressure;BME280_temperature;BME280_humidity;BME280_pressure;Samples;Min_cycle;Max_cycle;Signal;HPM_P1;HPM_P2
2022/05/01 00:01:06;;;;;;;41.28;23.23;;;;;;;;;;5038615;28;20208;-47
2022/05/01 00:03:36;;;;;;;42.85;26.20;;;;;;;;;;5038198;28;20201;-47
2022/05/01 00:06:04;;;;;;;28.55;18.42;;;;;;;;;;5038608;28;20225;-46
2022/05/01 00:08:32;;;;;;;101.90;57.13;;;;;;;;;;5037460;28;20220;-46
2022/05/01 00:11:00;;;;;;;66.20;38.95;;;;;;;;;;5038259;28;20647;-46
2022/05/01 00:13:44;;;;;;;59.13;35.22;;;;;;;;;;5037993;28;20196;-46
2022/05/01 00:16:12;;;;;;;85.10;49.03;;;;;;;;;;5037899;28;20221;-46
2022/05/01 00:18:40;;;;;;;190.48;97.97;;;;;;;;;;5037802;28;20231;-46
2022/05/01 00:21:08;;;;;;;378.00;178.35;;;;;;;;;;5037730;28;20635;-46
2022/05/01 00:23:35;;;;;;;116.15;63.67;;;;;;;;;;5037825;28;20205;-46
2022/05/01 00:26:04;;;;;;;52.53;27.95;;;;;;;;;;5038608;28;20255;-46
2022/05/01 00:28:33;;;;;;;85.80;50.40;;;;;;;;;;5038007;28;20212;-46
2022/05/01 00:31:02;;;;;;;78.22;46.28;;;;;;;;;;5035968;28;20554;-46
2022/05/01 00:36:27;;;;;;;44.88;27.73;;;;;;;;;;5023083;28;20201;-46
2022/05/01 00:39:05;;;;;;;66.05;36.67;;;;;;;;;;5017818;28;20624;-46
2022/05/01 00:41:34;;;;;;;50.58;29.77;;;;;;;;;;5017728;28;20251;-46
2022/05/01 00:44:08;;;;;;;47.83;30.85;;;;;;;;;;5017717;28;20213;-46
2022/05/01 00:46:46;;;;;;;36.33;23.38;;;;;;;;;;5017645;28;20204;-46
2022/05/01 00:49:19;;;;;;;28.92;17.15;;;;;;;;;;5017923;28;20229;-46
2022/05/01 00:52:01;;;;;;;35.25;20.35;;;;;;;;;;5017347;28;20233;-46
2022/05/01 00:54:30;;;;;;;27.42;17.58;;;;;;;;;;5016652;28;20640;-47
2022/05/01 00:57:01;;;;;;;22.95;16.08;;;;;;;;;;5016166;28;20632;-46
2022/05/01 00:59:29;;;;;;;16.83;12.32;;;;;;;;;;5017318;28;20229;-46
2022/05/01 01:01:57;;;;;;;17.25;11.20;;;;;;;;;;5017274;28;20201;-46
2022/05/01 01:04:24;;;;;;;24.58;15.52;;;;;;;;;;5017540;28;20562;-47
2022/05/01 01:06:52;;;;;;;22.17;14.02;;;;;;;;;;5017188;28;20201;-46
2022/05/01 01:09:19;;;;;;;14.52;10.50;;;;;;;;;;5017236;28;20205;-46
2022/05/01 01:11:46;;;;;;;22.10;13.95;;;;;;;;;;5017365;28;20201;-46
2022/05/01 01:14:15;;;;;;;31.45;18.92;;;;;;;;;;5017383;28;20198;-46
2022/05/01 01:16:44;;;;;;;25.38;13.50;;;;;;;;;;5017534;28;20213;-46
2022/05/01 01:19:12;;;;;;;25.02;16.80;;;;;;;;;;5017293;28;20248;-46
2022/05/01 01:21:39;;;;;;;35.88;19.02;;;;;;;;;;5017114;28;20216;-46
2022/05/01 01:24:09;;;;;;;35.33;18.40;;;;;;;;;;5017364;28;20271;-48
2022/05/01 01:26:36;;;;;;;36.70;19.80;;;;;;;;;;5016972;28;20655;-46
2022/05/01 01:31:40;;;;;;;17.40;12.13;;;;;;;;;;5016863;28;20225;-46
2022/05/01 01:31:53;;;;;;;17.73;12.02;;;;;;;;;;5016843;28;20205;-47
2022/05/01 01:34:22;;;;;;;23.67;15.27;;;;;;;;;;5016642;28;20201;-46
2022/05/01 01:36:49;;;;;;;28.25;17.83;;;;;;;;;;5016704;28;20201;-46
2022/05/01 01:39:18;;;;;;;34.88;22.98;;;;;;;;;;5016294;28;20221;-46
2022/05/01 01:41:47;;;;;;;49.25;32.47;;;;;;;;;;5015919;28;20206;-45
2022/05/01 01:44:15;;;;;;;38.60;25.33;;;;;;;;;;5015708;28;20526;-46
2022/05/01 01:46:42;;;;;;;32.53;22.25;;;;;;;;;;5015923;28;20655;-46
2022/05/01 01:49:10;;;;;;;20.35;13.98;;;;;;;;;;5017112;28;20241;-45
2022/05/01 01:51:37;;;;;;;25.90;18.63;;;;;;;;;;5030968;28;20200;-46
2022/05/01 01:54:06;;;;;;;24.30;14.75;;;;;;;;;;5037037;28;20201;-46
2022/05/01 01:56:37;;;;;;;44.27;27.63;;;;;;;;;;5036288;28;20201;-45
2022/05/01 01:59:04;;;;;;;25.50;16.63;;;;;;;;;;5035899;28;20689;-46
2022/05/01 02:01:32;;;;;;;47.57;26.70;;;;;;;;;;5035956;28;20204;-46
2022/05/01 02:04:00;;;;;;;151.55;78.25;;;;;;;;;;5036057;28;20228;-46
2022/05/01 02:06:27;;;;;;;222.23;95.07;;;;;;;;;;5036828;28;20204;-46
2022/05/01 02:08:54;;;;;;;50.30;26.40;;;;;;;;;;5036100;28;20209;-45
2022/05/01 02:11:21;;;;;;;21.50;15.18;;;;;;;;;;5035872;28;20205;-46
2022/05/01 02:13:48;;;;;;;23.23;14.38;;;;;;;;;;5035695;28;20283;-46
2022/05/01 02:16:17;;;;;;;15.75;10.70;;;;;;;;;;5035992;28;20212;-48
2022/05/01 02:18:44;;;;;;;16.05;11.73;;;;;;;;;;5036390;28;20548;-46
2022/05/01 02:23:57;;;;;;;23.90;11.67;;;;;;;;;;5036000;28;20215;-46
2022/05/01 02:26:24;;;;;;;16.17;11.57;;;;;;;;;;5035564;28;20274;-46
2022/05/01 02:28:51;;;;;;;18.33;12.50;;;;;;;;;;5035664;28;20299;-46
2022/05/01 02:31:19;;;;;;;15.47;12.10;;;;;;;;;;5035596;28;20205;-47
2022/05/01 02:33:46;;;;;;;16.67;11.07;;;;;;;;;;5035235;28;20200;-48
2022/05/01 02:36:15;;;;;;;14.23;10.87;;;;;;;;;;5035149;28;20647;-47
2022/05/01 02:38:44;;;;;;;15.73;10.93;;;;;;;;;;5035051;28;20215;-47
2022/05/01 02:41:11;;;;;;;16.27;11.83;;;;;;;;;;5035378;28;20212;-47
2022/05/01 02:43:39;;;;;;;15.57;11.25;;;;;;;;;;5034959;28;20207;-46
2022/05/01 02:46:06;;;;;;;17.00;12.13;;;;;;;;;;5035121;28;20527;-46
2022/05/01 02:48:33;;;;;;;16.70;12.97;;;;;;;;;;5034827;28;20583;-47
2022/05/01 02:51:04;;;;;;;16.50;11.90;;;;;;;;;;5034860;28;20209;-47
2022/05/01 02:53:33;;;;;;;18.27;12.30;;;;;;;;;;5034707;28;20205;-47
2022/05/01 02:56:00;;;;;;;17.33;13.40;;;;;;;;;;5034767;28;20200;-47
2022/05/01 02:58:30;;;;;;;17.93;13.40;;;;;;;;;;5035140;28;20572;-46
2022/05/01 03:00:58;;;;;;;22.80;12.90;;;;;;;;;;5034866;28;20566;-47
2022/05/01 03:03:25;;;;;;;16.83;11.60;;;;;;;;;;5034753;28;20295;-48
2022/05/01 03:05:54;;;;;;;18.30;12.47;;;;;;;;;;5034590;28;20523;-47
2022/05/01 03:08:21;;;;;;;22.70;13.10;;;;;;;;;;5034573;28;20666;-46
2022/05/01 03:10:48;;;;;;;19.20;12.43;;;;;;;;;;5034574;28;20647;-46
2022/05/01 03:13:17;;;;;;;16.20;12.00;;;;;;;;;;5034737;28;20271;-48
2022/05/01 03:15:44;;;;;;;19.20;13.20;;;;;;;;;;5034451;28;20201;-47
2022/05/01 03:23:49;;;;;;;16.20;10.90;;;;;;;;;;5021986;28;20205;-51
2022/05/01 03:26:18;;;;;;;15.20;11.77;;;;;;;;;;5028628;28;20215;-50
2022/05/01 03:28:46;;;;;;;15.77;11.80;;;;;;;;;;5032926;28;20204;-52
2022/05/01 03:31:14;;;;;;;16.10;10.93;;;;;;;;;;5033117;28;20579;-50
2022/05/01 03:33:42;;;;;;;16.23;12.00;;;;;;;;;;5033986;28;20205;-52
2022/05/01 03:36:09;;;;;;;12.77;10.00;;;;;;;;;;5037411;28;20197;-47
2022/05/01 03:38:41;;;;;;;14.43;9.10;;;;;;;;;;5036589;28;20200;-49
2022/05/01 03:41:15;;;;;;;14.93;9.77;;;;;;;;;;5037300;28;20212;-53
2022/05/01 03:43:43;;;;;;;17.13;13.37;;;;;;;;;;5037235;28;20300;-51
2022/05/01 03:46:11;;;;;;;21.17;13.40;;;;;;;;;;5037139;28;20635;-51
2022/05/01 03:48:38;;;;;;;17.07;12.37;;;;;;;;;;5036979;28;20266;-55
2022/05/01 03:51:05;;;;;;;20.83;13.03;;;;;;;;;;5036502;28;20259;-53
2022/05/01 03:53:33;;;;;;;20.37;12.67;;;;;;;;;;5037004;28;20602;-48
2022/05/01 03:56:00;;;;;;;17.73;12.70;;;;;;;;;;5033551;28;20274;-49
2022/05/01 03:58:29;;;;;;;17.37;11.80;;;;;;;;;;5035691;28;20211;-52
2022/05/01 04:00:57;;;;;;;17.17;11.20;;;;;;;;;;5037052;28;20228;-51
2022/05/01 04:03:25;;;;;;;18.80;13.03;;;;;;;;;;5036744;28;20189;-48
2022/05/01 04:05:53;;;;;;;18.63;12.77;;;;;;;;;;5036804;28;20231;-48
2022/05/01 04:08:21;;;;;;;19.10;12.70;;;;;;;;;;5032663;28;20197;-47
2022/05/01 04:10:48;;;;;;;18.80;12.20;;;;;;;;;;5026984;28;20213;-47
2022/05/01 04:13:15;;;;;;;19.57;12.10;;;;;;;;;;5018286;28;20233;-47
2022/05/01 04:15:44;;;;;;;14.35;12.60;;;;;;;;;;5018304;28;20224;-48
2022/05/01 04:18:12;;;;;;;18.65;14.10;;;;;;;;;;5018529;28;20209;-48
2022/05/01 04:20:39;;;;;;;19.65;14.50;;;;;;;;;;5018240;28;20221;-47
2022/05/01 04:23:07;;;;;;;23.10;14.53;;;;;;;;;;5017989;28;20216;-47
2022/05/01 04:25:34;;;;;;;16.33;13.23;;;;;;;;;;5018638;28;20516;-49
2022/05/01 04:28:04;;;;;;;23.05;14.40;;;;;;;;;;5028389;28;20205;-47
2022/05/01 04:30:32;;;;;;;19.02;14.10;;;;;;;;;;5033918;28;20202;-47
2022/05/01 04:33:01;;;;;;;15.98;13.90;;;;;;;;;;5021984;28;20205;-49
2022/05/01 04:35:40;;;;;;;26.55;15.13;;;;;;;;;;5037562;28;20200;-48
2022/05/01 04:38:10;;;;;;;23.35;14.52;;;;;;;;;;5037971;28;20587;-48
2022/05/01 04:40:39;;;;;;;21.50;14.88;;;;;;;;;;5037551;28;20239;-50
2022/05/01 04:43:10;;;;;;;26.52;17.48;;;;;;;;;;5029090;28;20202;-49
2022/05/01 04:45:40;;;;;;;25.10;17.02;;;;;;;;;;5017677;28;20224;-47
2022/05/01 04:48:09;;;;;;;26.70;17.08;;;;;;;;;;5017584;28;20213;-47
2022/05/01 04:50:36;;;;;;;26.40;17.55;;;;;;;;;;5018124;28;20279;-47
2022/05/01 04:53:06;;;;;;;25.67;17.17;;;;;;;;;;5017924;28;20582;-49
2022/05/01 04:55:33;;;;;;;25.65;18.08;;;;;;;;;;5018171;28;20252;-47
2022/05/01 04:58:00;;;;;;;27.05;18.50;;;;;;;;;;5017897;28;20213;-50
2022/05/01 05:00:29;;;;;;;29.92;19.20;;;;;;;;;;5017254;28;20225;-53
2022/05/01 05:02:57;;;;;;;29.00;20.02;;;;;;;;;;5017563;28;20209;-49
2022/05/01 05:05:26;;;;;;;28.02;20.38;;;;;;;;;;5017289;28;20201;-46
2022/05/01 05:07:54;;;;;;;30.55;21.27;;;;;;;;;;5017256;28;20213;-47
2022/05/01 05:10:21;;;;;;;38.85;24.70;;;;;;;;;;5017190;28;20542;-46
2022/05/01 05:12:49;;;;;;;43.80;30.08;;;;;;;;;;5028959;28;20197;-47
2022/05/01 05:15:20;;;;;;;45.72;30.98;;;;;;;;;;5036241;28;20671;-46
2022/05/01 05:17:47;;;;;;;53.55;33.38;;;;;;;;;;5048307;28;20243;-50
2022/05/01 05:20:14;;;;;;;43.85;31.83;;;;;;;;;;5037625;28;20244;-49
2022/05/01 05:22:42;;;;;;;51.13;35.13;;;;;;;;;;5055873;28;20350;-53
2022/05/01 05:25:10;;;;;;;51.25;33.97;;;;;;;;;;5051056;28;20244;-49
2022/05/01 05:27:38;;;;;;;53.97;33.30;;;;;;;;;;5047712;28;20683;-51
2022/05/01 05:30:06;;;;;;;50.55;34.40;;;;;;;;;;5036317;28;20231;-47
2022/05/01 05:32:36;;;;;;;54.65;35.13;;;;;;;;;;5036683;28;20240;-47
2022/05/01 05:35:03;;;;;;;53.75;35.22;;;;;;;;;;5036080;28;20676;-49
2022/05/01 05:37:31;;;;;;;46.65;32.83;;;;;;;;;;5036284;28;20224;-47
2022/05/01 05:39:59;;;;;;;48.45;34.10;;;;;;;;;;5035506;28;20252;-48
2022/05/01 05:42:26;;;;;;;50.97;33.38;;;;;;;;;;5035310;28;20302;-49
2022/05/01 05:44:53;;;;;;;42.75;31.50;;;;;;;;;;5035602;28;20663;-47
2022/05/01 05:47:20;;;;;;;46.30;29.88;;;;;;;;;;5035744;28;20694;-47
2022/05/01 05:49:48;;;;;;;41.45;28.35;;;;;;;;;;5035821;28;20248;-49
2022/05/01 05:52:20;;;;;;;37.83;28.25;;;;;;;;;;5035724;28;20228;-50
2022/05/01 05:54:47;;;;;;;38.97;28.10;;;;;;;;;;5035286;28;20227;-49
2022/05/01 05:57:14;;;;;;;42.65;30.30;;;;;;;;;;5034458;28;20228;-47
2022/05/01 05:59:42;;;;;;;39.60;31.75;;;;;;;;;;5052976;28;20238;-48
2022/05/01 06:02:09;;;;;;;45.10;32.80;;;;;;;;;;5055628;28;20243;-50
2022/05/01 06:04:37;;;;;;;43.63;30.60;;;;;;;;;;5055093;28;20659;-47
2022/05/01 06:07:04;;;;;;;42.58;30.60;;;;;;;;;;5055266;28;20220;-51
2022/05/01 06:09:32;;;;;;;49.67;33.42;;;;;;;;;;5055262;28;20747;-52
2022/05/01 06:11:59;;;;;;;44.67;33.85;;;;;;;;;;5054663;28;20234;-58
2022/05/01 06:14:27;;;;;;;44.08;33.83;;;;;;;;;;5051776;28;20247;-48
2022/05/01 06:16:54;;;;;;;42.35;32.25;;;;;;;;;;5035027;28;20228;-47
2022/05/01 06:19:21;;;;;;;50.00;32.17;;;;;;;;;;5034812;28;20236;-50
2022/05/01 06:21:48;;;;;;;45.42;32.38;;;;;;;;;;5034609;28;20240;-55
2022/05/01 06:24:15;;;;;;;44.47;32.03;;;;;;;;;;5031309;28;20671;-58
2022/05/01 06:26:43;;;;;;;48.38;31.20;;;;;;;;;;5032455;28;20251;-58
2022/05/01 06:29:10;;;;;;;46.00;32.60;;;;;;;;;;5032734;28;20252;-57
2022/05/01 06:31:39;;;;;;;42.58;32.22;;;;;;;;;;5030845;28;20215;-57
2022/05/01 06:34:06;;;;;;;48.05;32.42;;;;;;;;;;5032769;28;20254;-57
2022/05/01 06:36:34;;;;;;;44.53;33.03;;;;;;;;;;5031906;28;20224;-58
2022/05/01 06:39:01;;;;;;;48.30;34.40;;;;;;;;;;5033206;28;20288;-58
2022/05/01 06:41:28;;;;;;;46.35;34.55;;;;;;;;;;5030729;28;20310;-58
2022/05/01 06:43:55;;;;;;;42.95;33.63;;;;;;;;;;5034418;28;20224;-58
2022/05/01 06:46:22;;;;;;;47.20;35.50;;;;;;;;;;5033964;28;20224;-59
2022/05/01 06:48:49;;;;;;;46.85;35.38;;;;;;;;;;5034243;28;20306;-58
2022/05/01 06:51:17;;;;;;;52.72;34.85;;;;;;;;;;5034621;28;20224;-58
2022/05/01 06:53:44;;;;;;;45.90;34.72;;;;;;;;;;5034224;28;20236;-57
2022/05/01 06:56:11;;;;;;;48.75;34.60;;;;;;;;;;5034610;28;20228;-56
2022/05/01 06:58:40;;;;;;;43.03;32.55;;;;;;;;;;5042760;28;20710;-57
2022/05/01 07:01:07;;;;;;;45.78;32.40;;;;;;;;;;5035675;28;20336;-57
2022/05/01 07:03:35;;;;;;;44.35;31.80;;;;;;;;;;5034417;28;20224;-58
2022/05/01 07:06:03;;;;;;;46.13;35.50;;;;;;;;;;5029351;28;20228;-58
2022/05/01 07:08:30;;;;;;;49.45;36.70;;;;;;;;;;5031522;28;20231;-57
2022/05/01 07:10:57;;;;;;;46.92;35.67;;;;;;;;;;5031758;28;20335;-56
2022/05/01 07:13:25;;;;;;;43.30;32.83;;;;;;;;;;5032100;28;20228;-57
2022/05/01 07:15:52;;;;;;;45.72;34.03;;;;;;;;;;5033423;28;20224;-58
2022/05/01 07:18:19;;;;;;;43.63;33.47;;;;;;;;;;5031591;28;20663;-49
2022/05/01 07:20:47;;;;;;;45.42;32.67;;;;;;;;;;5032235;28;20243;-57
2022/05/01 07:23:14;;;;;;;48.45;31.90;;;;;;;;;;5032068;28;20372;-53
2022/05/01 07:25:41;;;;;;;40.33;29.23;;;;;;;;;;5031473;28;20255;-58
2022/05/01 07:28:09;;;;;;;40.58;30.33;;;;;;;;;;5029734;28;20703;-50
2022/05/01 07:30:36;;;;;;;43.15;30.73;;;;;;;;;;5031329;28;20327;-54
2022/05/01 07:33:03;;;;;;;38.05;28.67;;;;;;;;;;5031079;28;20217;-48
2022/05/01 07:35:30;;;;;;;39.90;28.13;;;;;;;;;;5031148;28;20220;-53
2022/05/01 07:38:01;;;;;;;38.83;27.10;;;;;;;;;;5031029;28;20231;-49
2022/05/01 07:40:28;;;;;;;38.20;28.23;;;;;;;;;;5029068;28;20224;-54
2022/05/01 07:42:56;;;;;;;33.22;23.30;;;;;;;;;;5028507;28;20210;-55
2022/05/01 07:45:23;;;;;;;36.45;23.40;;;;;;;;;;5030172;28;20238;-58
2022/05/01 07:47:55;;;;;;;32.53;24.45;;;;;;;;;;5031022;28;20244;-57
2022/05/01 07:50:23;;;;;;;40.22;25.75;;;;;;;;;;5015537;28;20256;-51
2022/05/01 07:52:50;;;;;;;35.92;25.38;;;;;;;;;;5016411;28;20527;-58
2022/05/01 07:55:17;;;;;;;36.97;26.85;;;;;;;;;;5033377;28;20549;-56
2022/05/01 07:57:45;;;;;;;33.88;24.35;;;;;;;;;;5029296;28;20690;-53
2022/05/01 08:00:13;;;;;;;34.00;22.10;;;;;;;;;;5032512;28;20227;-55
2022/05/01 08:05:28;;;;;;;30.42;22.02;;;;;;;;;;5030221;28;20224;-58
2022/05/01 08:07:57;;;;;;;32.67;20.13;;;;;;;;;;5032102;28;20228;-60
2022/05/01 08:10:24;;;;;;;25.45;20.75;;;;;;;;;;5029747;28;20709;-58
2022/05/01 08:12:52;;;;;;;28.58;19.55;;;;;;;;;;5031629;28;20220;-57
2022/05/01 08:15:19;;;;;;;20.77;16.63;;;;;;;;;;5032487;28;20283;-56
2022/05/01 08:17:46;;;;;;;24.63;16.58;;;;;;;;;;5031966;28;20251;-58
2022/05/01 08:23:03;;;;;;;19.02;12.93;;;;;;;;;;5036764;28;20311;-58
2022/05/01 08:25:32;;;;;;;18.98;12.52;;;;;;;;;;5037072;28;20220;-57
2022/05/01 08:27:59;;;;;;;15.98;9.10;;;;;;;;;;5040347;28;20212;-56
2022/05/01 08:30:27;;;;;;;10.32;7.10;;;;;;;;;;5046153;28;20221;-57
2022/05/01 08:32:55;;;;;;;14.32;9.38;;;;;;;;;;5035898;28;20221;-58
2022/05/01 08:35:22;;;;;;;18.38;12.57;;;;;;;;;;5036050;28;20216;-56
2022/05/01 08:37:49;;;;;;;18.98;12.82;;;;;;;;;;5034626;28;20221;-57
2022/05/01 08:40:18;;;;;;;13.07;9.63;;;;;;;;;;5036844;28;20228;-55
2022/05/01 08:42:46;;;;;;;11.65;7.88;;;;;;;;;;5036856;28;20260;-54
2022/05/01 08:45:15;;;;;;;12.23;8.75;;;;;;;;;;5034736;28;20590;-55
2022/05/01 08:47:45;;;;;;;8.63;5.95;;;;;;;;;;5031700;28;20675;-58
2022/05/01 08:50:12;;;;;;;12.57;7.95;;;;;;;;;;5035197;28;20253;-55
2022/05/01 08:52:40;;;;;;;10.02;5.72;;;;;;;;;;5034257;28;20528;-53
2022/05/01 08:55:08;;;;;;;9.45;6.90;;;;;;;;;;5035220;28;20220;-53
2022/05/01 08:57:35;;;;;;;16.20;7.68;;;;;;;;;;5034311;28;20225;-57
2022/05/01 09:00:07;;;;;;;11.25;7.07;;;;;;;;;;5017719;28;20302;-57
2022/05/01 09:02:34;;;;;;;11.40;7.63;;;;;;;;;;5031962;28;20597;-56
2022/05/01 09:05:02;;;;;;;10.82;7.75;;;;;;;;;;5035452;28;20229;-56
2022/05/01 09:07:29;;;;;;;16.55;7.60;;;;;;;;;;5035012;28;20221;-57
2022/05/01 09:09:57;;;;;;;10.77;7.47;;;;;;;;;;5033076;28;20228;-56
2022/05/01 09:15:12;;;;;;;10.45;7.68;;;;;;;;;;5033816;28;20228;-56
2022/05/01 09:17:39;;;;;;;12.07;7.45;;;;;;;;;;5033353;28;20745;-57
2022/05/01 09:20:08;;;;;;;10.93;7.45;;;;;;;;;;5033150;28;20240;-53
2022/05/01 09:22:50;;;;;;;12.02;7.93;;;;;;;;;;5034008;28;20286;-46
2022/05/01 09:25:18;;;;;;;11.57;8.18;;;;;;;;;;5034820;28;20363;-49
2022/05/01 09:27:46;;;;;;;8.98;7.38;;;;;;;;;;5037498;28;20683;-46
2022/05/01 09:30:21;;;;;;;11.98;7.90;;;;;;;;;;5055781;28;20277;-47
2022/05/01 09:32:49;;;;;;;11.32;7.45;;;;;;;;;;5054727;28;20235;-47
2022/05/01 09:35:22;;;;;;;12.05;7.38;;;;;;;;;;5055909;28;20314;-47
2022/05/01 09:37:51;;;;;;;10.05;7.47;;;;;;;;;;5043273;28;20220;-51
2022/05/01 09:40:33;;;;;;;10.10;7.07;;;;;;;;;;5033606;28;20417;-46
2022/05/01 09:43:00;;;;;;;9.77;6.72;;;;;;;;;;5023004;28;20275;-50
2022/05/01 09:45:32;;;;;;;8.60;6.03;;;;;;;;;;5028583;28;20201;-46
2022/05/01 09:48:20;;;;;;;12.90;6.50;;;;;;;;;;5021528;28;20205;-47
2022/05/01 09:50:48;;;;;;;8.43;6.40;;;;;;;;;;5034046;28;20243;-47
2022/05/01 09:53:16;;;;;;;10.70;6.70;;;;;;;;;;5035953;28;20208;-47
2022/05/01 09:55:59;;;;;;;9.88;6.45;;;;;;;;;;5035523;28;20205;-48
2022/05/01 09:58:31;;;;;;;9.25;6.63;;;;;;;;;;5036068;28;20251;-48
2022/05/01 10:00:58;;;;;;;8.30;6.60;;;;;;;;;;5036276;28;20227;-49
2022/05/01 10:03:28;;;;;;;9.38;6.85;;;;;;;;;;5035262;28;20291;-47
2022/05/01 10:05:58;;;;;;;9.05;6.55;;;;;;;;;;5036153;28;20213;-48
2022/05/01 10:08:26;;;;;;;9.40;6.80;;;;;;;;;;5036338;28;20201;-47
2022/05/01 10:10:57;;;;;;;10.35;6.75;;;;;;;;;;5035123;28;20196;-49
2022/05/01 10:13:26;;;;;;;11.88;6.70;;;;;;;;;;5033499;28;20192;-49
2022/05/01 10:16:08;;;;;;;9.95;6.30;;;;;;;;;;5033338;28;20596;-50
2022/05/01 10:18:37;;;;;;;9.85;6.45;;;;;;;;;;5034950;28;20205;-49
2022/05/01 10:21:06;;;;;;;8.48;6.57;;;;;;;;;;5036174;28;20282;-48
2022/05/01 10:23:34;;;;;;;8.55;6.45;;;;;;;;;;5035884;28;20204;-50
2022/05/01 10:26:10;;;;;;;7.57;5.85;;;;;;;;;;5035800;28;20208;-48
2022/05/01 10:29:17;;;;;;;14.68;6.65;;;;;;;;;;5035425;28;20227;-47
2022/05/01 10:32:22;;;;;;;12.00;5.95;;;;;;;;;;5034706;28;20204;-47
2022/05/01 10:35:27;;;;;;;10.13;6.30;;;;;;;;;;5014085;28;20216;-48
2022/05/01 10:38:16;;;;;;;7.80;6.13;;;;;;;;;;5013679;28;20190;-49
2022/05/01 10:40:57;;;;;;;9.02;5.75;;;;;;;;;;5013932;28;20193;-49
2022/05/01 10:43:33;;;;;;;13.15;6.10;;;;;;;;;;4993678;28;20202;-49
2022/05/01 10:46:01;;;;;;;7.95;5.93;;;;;;;;;;5014154;28;20221;-48
2022/05/01 10:48:34;;;;;;;8.27;6.20;;;;;;;;;;5014094;28;20263;-48
2022/05/01 10:51:38;;;;;;;8.43;5.85;;;;;;;;;;5011321;28;20225;-55
2022/05/01 10:54:17;;;;;;;9.77;5.88;;;;;;;;;;5007754;28;20705;-52
2022/05/01 10:56:49;;;;;;;8.25;5.45;;;;;;;;;;5011247;28;20261;-49
2022/05/01 10:59:43;;;;;;;9.13;5.57;;;;;;;;;;5007891;28;20229;-52
2022/05/01 11:02:24;;;;;;;7.90;4.97;;;;;;;;;;5012128;28;20373;-53
2022/05/01 11:04:53;;;;;;;9.23;5.32;;;;;;;;;;5012418;28;20591;-51
2022/05/01 11:07:21;;;;;;;10.15;5.60;;;;;;;;;;5012717;28;20229;-53
2022/05/01 11:09:50;;;;;;;8.80;5.28;;;;;;;;;;5012310;28;20256;-51
2022/05/01 11:12:19;;;;;;;8.57;5.28;;;;;;;;;;5033132;28;20240;-46
2022/05/01 11:14:56;;;;;;;9.00;5.53;;;;;;;;;;5032592;28;20686;-51
2022/05/01 11:17:50;;;;;;;7.88;5.57;;;;;;;;;;5033786;28;20228;-49
2022/05/01 11:20:21;;;;;;;8.68;5.53;;;;;;;;;;5031967;28;20229;-47
2022/05/01 11:22:48;;;;;;;9.65;5.50;;;;;;;;;;5034342;28;20243;-48
2022/05/01 11:25:32;;;;;;;11.43;5.88;;;;;;;;;;5033267;28;20270;-47
2022/05/01 11:28:00;;;;;;;9.55;5.45;;;;;;;;;;5032330;28;20232;-56
2022/05/01 11:30:27;;;;;;;11.07;5.97;;;;;;;;;;5048797;28;20265;-48
2022/05/01 11:33:10;;;;;;;9.18;5.38;;;;;;;;;;5053803;28;20224;-48
2022/05/01 11:35:56;;;;;;;8.80;5.40;;;;;;;;;;5053428;28;20228;-47
2022/05/01 11:38:30;;;;;;;8.85;5.10;;;;;;;;;;5053983;28;20289;-49
2022/05/01 11:41:03;;;;;;;8.32;5.43;;;;;;;;;;5054038;28;20266;-46
2022/05/01 11:43:31;;;;;;;9.30;5.90;;;;;;;;;;5053425;28;20227;-49
2022/05/01 11:46:01;;;;;;;9.52;5.25;;;;;;;;;;5053758;28;20224;-46
2022/05/01 11:48:28;;;;;;;7.22;5.00;;;;;;;;;;5053707;28;20290;-46
2022/05/01 11:50:58;;;;;;;8.65;4.88;;;;;;;;;;5053832;28;20277;-47
2022/05/01 11:53:31;;;;;;;9.13;5.40;;;;;;;;;;5054081;28;20258;-49
2022/05/01 12:04:38;;;;;;;10.98;5.10;;;;;;;;;;5037669;28;20228;-46
2022/05/01 12:07:14;;;;;;;9.10;4.75;;;;;;;;;;5037523;28;20319;-48
2022/05/01 12:09:43;;;;;;;8.05;5.03;;;;;;;;;;5037337;28;20228;-46
2022/05/01 12:12:12;;;;;;;8.27;4.40;;;;;;;;;;5036922;28;20370;-47
2022/05/01 12:14:40;;;;;;;6.00;4.65;;;;;;;;;;5036703;28;20263;-48
2022/05/01 12:17:15;;;;;;;7.10;4.97;;;;;;;;;;5037344;28;20232;-47
2022/05/01 12:19:49;;;;;;;6.95;5.18;;;;;;;;;;5037267;28;20323;-47
2022/05/01 12:22:17;;;;;;;7.55;4.60;;;;;;;;;;5037324;28;20705;-47
2022/05/01 12:24:45;;;;;;;10.10;4.85;;;;;;;;;;5037071;28;20236;-47
2022/05/01 12:27:14;;;;;;;8.25;4.90;;;;;;;;;;5037345;28;20236;-46
2022/05/01 12:29:49;;;;;;;8.25;4.50;;;;;;;;;;5046990;28;20293;-47
2022/05/01 12:32:17;;;;;;;8.20;5.35;;;;;;;;;;5057022;28;20235;-46
2022/05/01 12:34:45;;;;;;;7.35;4.43;;;;;;;;;;5056771;28;20227;-47
2022/05/01 12:37:21;;;;;;;8.23;4.40;;;;;;;;;;5057390;28;20228;-47
2022/05/01 12:39:55;;;;;;;10.85;4.82;;;;;;;;;;5057104;28;20550;-48
2022/05/01 12:45:20;;;;;;;10.32;4.50;;;;;;;;;;5056005;28;20704;-47
2022/05/01 12:47:49;;;;;;;7.00;4.40;;;;;;;;;;5056783;28;20285;-48
2022/05/01 12:50:19;;;;;;;8.27;4.35;;;;;;;;;;5056900;28;20304;-48
2022/05/01 12:52:49;;;;;;;6.53;3.88;;;;;;;;;;5056352;28;20772;-49
2022/05/01 12:55:28;;;;;;;7.82;4.50;;;;;;;;;;5056733;28;20220;-47
2022/05/01 12:58:00;;;;;;;6.97;4.70;;;;;;;;;;5056233;28;20224;-47
2022/05/01 13:00:44;;;;;;;9.07;5.13;;;;;;;;;;5039842;28;20286;-51
2022/05/01 13:03:14;;;;;;;8.07;4.63;;;;;;;;;;5036779;28;20244;-47
2022/05/01 13:05:43;;;;;;;5.97;4.50;;;;;;;;;;5036698;28;20278;-48
2022/05/01 13:08:17;;;;;;;5.93;4.88;;;;;;;;;;5037009;28;20205;-48
2022/05/01 13:11:12;;;;;;;7.75;5.10;;;;;;;;;;5036992;28;20230;-47
2022/05/01 13:13:52;;;;;;;7.57;4.55;;;;;;;;;;5037498;28;20195;-48
2022/05/01 13:16:23;;;;;;;8.00;4.38;;;;;;;;;;5037172;28;20564;-52
2022/05/01 13:18:52;;;;;;;5.45;4.28;;;;;;;;;;5036751;28;20209;-48
2022/05/01 13:21:20;;;;;;;8.60;4.70;;;;;;;;;;5036882;28;20673;-49
2022/05/01 13:23:49;;;;;;;8.23;4.90;;;;;;;;;;5036728;28;20235;-47
2022/05/01 13:26:17;;;;;;;7.18;4.60;;;;;;;;;;5036893;28;20247;-47
2022/05/01 13:28:45;;;;;;;7.57;4.75;;;;;;;;;;5036951;28;20271;-48
2022/05/01 13:31:14;;;;;;;7.57;5.00;;;;;;;;;;5035427;28;20201;-48
2022/05/01 13:33:41;;;;;;;8.27;4.70;;;;;;;;;;5034994;28;20224;-47
2022/05/01 13:36:08;;;;;;;5.95;4.13;;;;;;;;;;5043519;28;20294;-49
2022/05/01 13:38:37;;;;;;;7.65;4.80;;;;;;;;;;5046133;28;20228;-50
2022/05/01 13:46:37;;;;;;;8.90;4.40;;;;;;;;;;5047265;28;20231;-47
2022/05/01 13:49:04;;;;;;;5.20;3.97;;;;;;;;;;5034603;28;20248;-51
2022/05/01 13:51:31;;;;;;;7.20;4.72;;;;;;;;;;5035659;28;20239;-48
2022/05/01 13:53:58;;;;;;;6.55;3.97;;;;;;;;;;5035386;28;20741;-50
2022/05/01 13:56:26;;;;;;;7.45;4.25;;;;;;;;;;5036033;28;20239;-49
2022/05/01 13:58:53;;;;;;;6.85;4.32;;;;;;;;;;5035230;28;20221;-48
2022/05/01 14:01:20;;;;;;;7.60;4.13;;;;;;;;;;5034870;28;20683;-47
2022/05/01 14:03:48;;;;;;;10.80;4.25;;;;;;;;;;5035126;28;20263;-47
2022/05/01 14:06:16;;;;;;;6.30;3.80;;;;;;;;;;5035451;28;20242;-47
2022/05/01 14:08:43;;;;;;;5.38;3.58;;;;;;;;;;5035080;28;20229;-48
2022/05/01 14:11:10;;;;;;;6.85;3.95;;;;;;;;;;5035818;28;20204;-47
2022/05/01 14:13:37;;;;;;;6.03;3.50;;;;;;;;;;5036473;28;20224;-46
2022/05/01 14:16:05;;;;;;;6.78;3.40;;;;;;;;;;5035806;28;20197;-47
2022/05/01 14:18:34;;;;;;;7.65;3.70;;;;;;;;;;5035153;28;20209;-47
2022/05/01 14:21:03;;;;;;;6.72;4.00;;;;;;;;;;5035576;28;20752;-47
2022/05/01 14:23:33;;;;;;;7.22;4.22;;;;;;;;;;5035724;28;20255;-47
2022/05/01 14:26:00;;;;;;;4.80;3.50;;;;;;;;;;5036205;28;20200;-47
2022/05/01 14:28:27;;;;;;;4.65;3.42;;;;;;;;;;5035912;28;20290;-47
2022/05/01 14:31:07;;;;;;;6.90;3.58;;;;;;;;;;5035589;28;20209;-47
2022/05/01 14:33:39;;;;;;;5.13;3.50;;;;;;;;;;5035656;28;20262;-47
2022/05/01 14:36:07;;;;;;;5.22;4.00;;;;;;;;;;5035880;28;20546;-48
2022/05/01 14:38:45;;;;;;;5.93;3.53;;;;;;;;;;5035574;28;20196;-47
2022/05/01 14:41:16;;;;;;;5.43;3.65;;;;;;;;;;5035730;28;20200;-48
2022/05/01 14:43:44;;;;;;;5.30;3.53;;;;;;;;;;5034422;28;20278;-48
2022/05/01 14:46:13;;;;;;;7.47;3.55;;;;;;;;;;5031014;28;20220;-47
2022/05/01 14:48:53;;;;;;;7.57;3.60;;;;;;;;;;5011054;28;20204;-59
2022/05/01 14:51:21;;;;;;;8.98;3.80;;;;;;;;;;5028279;28;20203;-55
2022/05/01 14:53:49;;;;;;;6.43;3.88;;;;;;;;;;5034872;28;20224;-55
2022/05/01 14:56:19;;;;;;;5.72;3.90;;;;;;;;;;5034729;28;20717;-55
2022/05/01 15:07:13;;;;;;;7.38;3.60;;;;;;;;;;5029655;28;20231;-49
2022/05/01 15:09:40;;;;;;;5.15;3.92;;;;;;;;;;5061304;28;20558;-52
2022/05/01 15:12:08;;;;;;;7.25;3.95;;;;;;;;;;5035002;28;20244;-53
2022/05/01 15:14:35;;;;;;;6.15;3.70;;;;;;;;;;5035135;28;20675;-54
2022/05/01 15:17:07;;;;;;;10.18;4.05;;;;;;;;;;5035291;28;20220;-50
2022/05/01 15:19:44;;;;;;;8.07;3.88;;;;;;;;;;5033367;28;20235;-52
2022/05/01 15:22:24;;;;;;;4.65;3.58;;;;;;;;;;5031969;28;20239;-54
2022/05/01 15:25:10;;;;;;;8.27;3.90;;;;;;;;;;5031093;28;20216;-55
2022/05/01 15:27:57;;;;;;;6.65;4.05;;;;;;;;;;5033757;28;20578;-50